Volos, Greece
Current Conditions -  °F | °C
As of 8:50 PM on Friday 24 Oct 2014 (Local Time) from LGBL Reporting Station
Moderate Rain Moderate Rain  
Wind Chill: 50°   Ceiling: 2500
Heat Index: 50°   Visibility: 4mi
Dew Point: 46°   Wind: 17mph
Humidity: 87%   Direction: 280°W
Pressure: 29.62"   Gusts: NA
Location:  39.37°N, 22.95°E
Report Text: LGBL 241750Z 28015KT 6000 RA SCT010 BKN025 OVC070 10/08 Q1003
Loading
Personal Weather Stations






























Interactive Weather Map
Tropical Storm Tracking
New forecast layout! Learn more

10-Day Weather Forecast

Advertisements
Track Severe Weather on mobile